sensor_id;sensor_type;location;lat;lon;timestamp;P1;durP1;ratioP1;P2;durP2;ratioP2
3795;SDS011;1913;50.660;7.834;2023-02-15T00:01:22;63.90;;;27.87;;
3795;SDS011;1913;50.660;7.834;2023-02-15T00:03:48;54.97;;;23.37;;
3795;SDS011;1913;50.660;7.834;2023-02-15T00:06:14;62.30;;;25.00;;
3795;SDS011;1913;50.660;7.834;2023-02-15T00:08:39;65.63;;;26.10;;
3795;SDS011;1913;50.660;7.834;2023-02-15T00:11:09;69.77;;;26.80;;
3795;SDS011;1913;50.660;7.834;2023-02-15T00:13:36;59.43;;;23.97;;
3795;SDS011;1913;50.660;7.834;2023-02-15T00:16:07;65.50;;;25.37;;
3795;SDS011;1913;50.660;7.834;2023-02-15T00:18:34;54.63;;;23.23;;
3795;SDS011;1913;50.660;7.834;2023-02-15T00:21:04;56.00;;;23.37;;
3795;SDS011;1913;50.660;7.834;2023-02-15T00:23:32;58.13;;;23.10;;
3795;SDS011;1913;50.660;7.834;2023-02-15T00:26:08;57.00;;;23.20;;
3795;SDS011;1913;50.660;7.834;2023-02-15T00:28:36;52.60;;;21.97;;
3795;SDS011;1913;50.660;7.834;2023-02-15T00:31:09;61.87;;;24.30;;
3795;SDS011;1913;50.660;7.834;2023-02-15T00:33:36;61.57;;;25.20;;
3795;SDS011;1913;50.660;7.834;2023-02-15T00:36:03;59.07;;;23.23;;
3795;SDS011;1913;50.660;7.834;2023-02-15T00:38:30;63.13;;;24.40;;
3795;SDS011;1913;50.660;7.834;2023-02-15T00:40:57;61.23;;;23.40;;
3795;SDS011;1913;50.660;7.834;2023-02-15T00:43:24;59.73;;;23.97;;
3795;SDS011;1913;50.660;7.834;2023-02-15T00:45:50;54.70;;;23.93;;
3795;SDS011;1913;50.660;7.834;2023-02-15T00:48:15;62.57;;;23.67;;
3795;SDS011;1913;50.660;7.834;2023-02-15T00:50:41;61.07;;;24.40;;
3795;SDS011;1913;50.660;7.834;2023-02-15T00:53:07;54.13;;;22.90;;
3795;SDS011;1913;50.660;7.834;2023-02-15T00:55:32;50.90;;;21.10;;
3795;SDS011;1913;50.660;7.834;2023-02-15T00:57:58;51.93;;;22.70;;
3795;SDS011;1913;50.660;7.834;2023-02-15T01:00:23;60.67;;;22.23;;
3795;SDS011;1913;50.660;7.834;2023-02-15T01:02:49;48.77;;;20.47;;
3795;SDS011;1913;50.660;7.834;2023-02-15T01:05:15;49.50;;;21.13;;
3795;SDS011;1913;50.660;7.834;2023-02-15T01:07:40;49.90;;;20.07;;
3795;SDS011;1913;50.660;7.834;2023-02-15T01:10:06;49.80;;;18.80;;
3795;SDS011;1913;50.660;7.834;2023-02-15T01:12:32;45.10;;;19.60;;
3795;SDS011;1913;50.660;7.834;2023-02-15T01:14:58;36.43;;;18.40;;
3795;SDS011;1913;50.660;7.834;2023-02-15T01:17:24;48.07;;;19.40;;
3795;SDS011;1913;50.660;7.834;2023-02-15T01:19:49;46.97;;;20.20;;
3795;SDS011;1913;50.660;7.834;2023-02-15T01:22:16;43.07;;;18.43;;
3795;SDS011;1913;50.660;7.834;2023-02-15T01:24:42;42.50;;;19.13;;
3795;SDS011;1913;50.660;7.834;2023-02-15T01:27:08;39.97;;;17.73;;
3795;SDS011;1913;50.660;7.834;2023-02-15T01:29:33;43.40;;;17.23;;
3795;SDS011;1913;50.660;7.834;2023-02-15T01:31:59;35.50;;;16.33;;
3795;SDS011;1913;50.660;7.834;2023-02-15T01:34:24;35.87;;;16.77;;
3795;SDS011;1913;50.660;7.834;2023-02-15T01:36:49;35.80;;;16.30;;
3795;SDS011;1913;50.660;7.834;2023-02-15T01:39:15;35.47;;;16.50;;
3795;SDS011;1913;50.660;7.834;2023-02-15T01:41:40;37.53;;;16.00;;
3795;SDS011;1913;50.660;7.834;2023-02-15T01:47:07;35.90;;;15.70;;
3795;SDS011;1913;50.660;7.834;2023-02-15T01:49:35;40.50;;;15.70;;
3795;SDS011;1913;50.660;7.834;2023-02-15T01:52:01;39.50;;;15.63;;
3795;SDS011;1913;50.660;7.834;2023-02-15T01:54:31;37.77;;;15.00;;
3795;SDS011;1913;50.660;7.834;2023-02-15T01:57:05;38.97;;;16.10;;
3795;SDS011;1913;50.660;7.834;2023-02-15T01:59:40;34.07;;;15.90;;
3795;SDS011;1913;50.660;7.834;2023-02-15T02:02:11;37.83;;;16.50;;
3795;SDS011;1913;50.660;7.834;2023-02-15T02:04:41;34.60;;;16.80;;
3795;SDS011;1913;50.660;7.834;2023-02-15T02:07:12;35.57;;;16.90;;
3795;SDS011;1913;50.660;7.834;2023-02-15T02:09:39;40.10;;;17.00;;
3795;SDS011;1913;50.660;7.834;2023-02-15T02:12:04;35.33;;;16.20;;
3795;SDS011;1913;50.660;7.834;2023-02-15T02:14:31;39.47;;;16.80;;
3795;SDS011;1913;50.660;7.834;2023-02-15T02:16:58;38.17;;;15.90;;
3795;SDS011;1913;50.660;7.834;2023-02-15T02:19:46;35.60;;;15.57;;
3795;SDS011;1913;50.660;7.834;2023-02-15T02:30:59;40.90;;;15.77;;
3795;SDS011;1913;50.660;7.834;2023-02-15T02:37:02;33.40;;;14.43;;
3795;SDS011;1913;50.660;7.834;2023-02-15T02:39:52;33.20;;;14.50;;
3795;SDS011;1913;50.660;7.834;2023-02-15T02:42:25;36.37;;;14.97;;
3795;SDS011;1913;50.660;7.834;2023-02-15T02:50:05;36.27;;;13.90;;
3795;SDS011;1913;50.660;7.834;2023-02-15T02:52:37;38.83;;;14.97;;
3795;SDS011;1913;50.660;7.834;2023-02-15T02:55:03;32.37;;;13.13;;
3795;SDS011;1913;50.660;7.834;2023-02-15T02:57:34;31.67;;;14.00;;
3795;SDS011;1913;50.660;7.834;2023-02-15T03:00:02;29.90;;;13.43;;
3795;SDS011;1913;50.660;7.834;2023-02-15T03:02:31;36.77;;;13.67;;
3795;SDS011;1913;50.660;7.834;2023-02-15T03:05:01;32.03;;;12.30;;
3795;SDS011;1913;50.660;7.834;2023-02-15T03:07:31;34.00;;;12.97;;
3795;SDS011;1913;50.660;7.834;2023-02-15T03:10:00;31.00;;;12.80;;
3795;SDS011;1913;50.660;7.834;2023-02-15T03:12:32;30.50;;;12.87;;
3795;SDS011;1913;50.660;7.834;2023-02-15T03:17:45;33.10;;;11.90;;
3795;SDS011;1913;50.660;7.834;2023-02-15T03:20:16;27.93;;;11.67;;
3795;SDS011;1913;50.660;7.834;2023-02-15T03:23:12;29.53;;;13.10;;
3795;SDS011;1913;50.660;7.834;2023-02-15T03:25:39;35.90;;;13.97;;
3795;SDS011;1913;50.660;7.834;2023-02-15T03:28:12;28.10;;;12.33;;
3795;SDS011;1913;50.660;7.834;2023-02-15T03:30:42;30.57;;;12.60;;
3795;SDS011;1913;50.660;7.834;2023-02-15T03:33:10;31.43;;;13.23;;
3795;SDS011;1913;50.660;7.834;2023-02-15T03:35:49;29.17;;;11.63;;
3795;SDS011;1913;50.660;7.834;2023-02-15T03:38:26;34.07;;;12.57;;
3795;SDS011;1913;50.660;7.834;2023-02-15T03:41:05;26.00;;;12.00;;
3795;SDS011;1913;50.660;7.834;2023-02-15T03:48:57;25.83;;;12.30;;
3795;SDS011;1913;50.660;7.834;2023-02-15T03:51:31;28.07;;;12.60;;
3795;SDS011;1913;50.660;7.834;2023-02-15T03:54:04;25.87;;;11.37;;
3795;SDS011;1913;50.660;7.834;2023-02-15T03:56:35;29.37;;;12.00;;
3795;SDS011;1913;50.660;7.834;2023-02-15T03:59:03;29.80;;;11.30;;
3795;SDS011;1913;50.660;7.834;2023-02-15T04:04:45;28.40;;;11.53;;
3795;SDS011;1913;50.660;7.834;2023-02-15T04:07:12;31.50;;;12.57;;
3795;SDS011;1913;50.660;7.834;2023-02-15T04:09:37;28.63;;;12.37;;
3795;SDS011;1913;50.660;7.834;2023-02-15T04:12:21;28.87;;;10.47;;
3795;SDS011;1913;50.660;7.834;2023-02-15T04:14:47;26.93;;;11.40;;
3795;SDS011;1913;50.660;7.834;2023-02-15T04:17:31;30.97;;;12.87;;
3795;SDS011;1913;50.660;7.834;2023-02-15T04:19:57;31.50;;;11.57;;
3795;SDS011;1913;50.660;7.834;2023-02-15T04:22:41;22.50;;;9.40;;
3795;SDS011;1913;50.660;7.834;2023-02-15T04:25:25;27.30;;;11.50;;
3795;SDS011;1913;50.660;7.834;2023-02-15T04:27:51;30.90;;;11.80;;
3795;SDS011;1913;50.660;7.834;2023-02-15T04:30:19;23.30;;;10.30;;
3795;SDS011;1913;50.660;7.834;2023-02-15T04:32:46;32.17;;;12.87;;
3795;SDS011;1913;50.660;7.834;2023-02-15T04:35:12;27.73;;;11.13;;
3795;SDS011;1913;50.660;7.834;2023-02-15T04:37:38;28.07;;;12.80;;
3795;SDS011;1913;50.660;7.834;2023-02-15T04:40:04;27.93;;;12.30;;
3795;SDS011;1913;50.660;7.834;2023-02-15T04:42:31;27.87;;;10.67;;
3795;SDS011;1913;50.660;7.834;2023-02-15T04:44:57;28.17;;;11.43;;
3795;SDS011;1913;50.660;7.834;2023-02-15T04:47:22;24.57;;;10.83;;
3795;SDS011;1913;50.660;7.834;2023-02-15T04:49:48;27.20;;;10.73;;
3795;SDS011;1913;50.660;7.834;2023-02-15T04:52:14;25.60;;;9.90;;
3795;SDS011;1913;50.660;7.834;2023-02-15T04:54:39;28.50;;;12.43;;
3795;SDS011;1913;50.660;7.834;2023-02-15T04:57:05;27.90;;;11.77;;
3795;SDS011;1913;50.660;7.834;2023-02-15T04:59:30;28.50;;;11.43;;
3795;SDS011;1913;50.660;7.834;2023-02-15T05:01:56;26.20;;;10.30;;
3795;SDS011;1913;50.660;7.834;2023-02-15T05:04:22;27.40;;;11.73;;
3795;SDS011;1913;50.660;7.834;2023-02-15T05:06:47;31.97;;;12.40;;
3795;SDS011;1913;50.660;7.834;2023-02-15T05:09:13;33.00;;;12.13;;
3795;SDS011;1913;50.660;7.834;2023-02-15T05:11:38;29.90;;;11.60;;
3795;SDS011;1913;50.660;7.834;2023-02-15T05:14:04;31.13;;;12.20;;
3795;SDS011;1913;50.660;7.834;2023-02-15T05:16:29;31.17;;;12.10;;
3795;SDS011;1913;50.660;7.834;2023-02-15T05:18:55;34.03;;;12.40;;
3795;SDS011;1913;50.660;7.834;2023-02-15T05:21:20;30.57;;;11.77;;
3795;SDS011;1913;50.660;7.834;2023-02-15T05:23:46;33.63;;;12.00;;
3795;SDS011;1913;50.660;7.834;2023-02-15T05:26:12;30.10;;;12.00;;
3795;SDS011;1913;50.660;7.834;2023-02-15T05:29:01;36.90;;;12.23;;
3795;SDS011;1913;50.660;7.834;2023-02-15T05:31:27;28.80;;;12.37;;
3795;SDS011;1913;50.660;7.834;2023-02-15T05:33:53;30.33;;;12.20;;
3795;SDS011;1913;50.660;7.834;2023-02-15T05:36:18;34.00;;;13.83;;
3795;SDS011;1913;50.660;7.834;2023-02-15T05:38:44;32.67;;;12.70;;
3795;SDS011;1913;50.660;7.834;2023-02-15T05:41:10;31.40;;;12.00;;
3795;SDS011;1913;50.660;7.834;2023-02-15T05:43:36;32.20;;;12.50;;
3795;SDS011;1913;50.660;7.834;2023-02-15T05:46:03;28.43;;;11.90;;
3795;SDS011;1913;50.660;7.834;2023-02-15T05:48:29;34.73;;;11.93;;
3795;SDS011;1913;50.660;7.834;2023-02-15T05:51:09;34.23;;;12.10;;
3795;SDS011;1913;50.660;7.834;2023-02-15T05:53:38;32.23;;;12.00;;
3795;SDS011;1913;50.660;7.834;2023-02-15T05:56:04;30.30;;;11.57;;
3795;SDS011;1913;50.660;7.834;2023-02-15T05:58:32;30.47;;;11.00;;
3795;SDS011;1913;50.660;7.834;2023-02-15T06:00:59;31.23;;;11.37;;
3795;SDS011;1913;50.660;7.834;2023-02-15T06:03:35;27.30;;;10.93;;
3795;SDS011;1913;50.660;7.834;2023-02-15T06:06:00;28.43;;;11.27;;
3795;SDS011;1913;50.660;7.834;2023-02-15T06:08:26;27.77;;;11.07;;
3795;SDS011;1913;50.660;7.834;2023-02-15T06:10:52;31.33;;;10.93;;
3795;SDS011;1913;50.660;7.834;2023-02-15T06:13:17;21.47;;;10.10;;
3795;SDS011;1913;50.660;7.834;2023-02-15T06:15:43;24.97;;;9.90;;
3795;SDS011;1913;50.660;7.834;2023-02-15T06:18:08;25.07;;;10.73;;
3795;SDS011;1913;50.660;7.834;2023-02-15T06:20:33;29.27;;;10.90;;
3795;SDS011;1913;50.660;7.834;2023-02-15T06:22:59;23.47;;;10.30;;
3795;SDS011;1913;50.660;7.834;2023-02-15T06:25:24;24.27;;;11.00;;
3795;SDS011;1913;50.660;7.834;2023-02-15T06:27:50;21.67;;;10.20;;
3795;SDS011;1913;50.660;7.834;2023-02-15T06:30:15;25.30;;;10.37;;
3795;SDS011;1913;50.660;7.834;2023-02-15T06:32:41;25.07;;;9.90;;
3795;SDS011;1913;50.660;7.834;2023-02-15T06:35:06;26.10;;;10.50;;
3795;SDS011;1913;50.660;7.834;2023-02-15T06:37:32;24.47;;;9.80;;
3795;SDS011;1913;50.660;7.834;2023-02-15T06:39:58;22.40;;;9.53;;
3795;SDS011;1913;50.660;7.834;2023-02-15T06:42:23;19.83;;;9.13;;
3795;SDS011;1913;50.660;7.834;2023-02-15T06:44:50;30.07;;;11.20;;
3795;SDS011;1913;50.660;7.834;2023-02-15T06:47:15;22.90;;;9.73;;
3795;SDS011;1913;50.660;7.834;2023-02-15T06:49:41;24.80;;;10.47;;
3795;SDS011;1913;50.660;7.834;2023-02-15T06:52:06;21.83;;;9.00;;
3795;SDS011;1913;50.660;7.834;2023-02-15T06:54:32;28.90;;;10.60;;
3795;SDS011;1913;50.660;7.834;2023-02-15T06:56:57;24.60;;;9.80;;
3795;SDS011;1913;50.660;7.834;2023-02-15T06:59:22;26.00;;;11.60;;
3795;SDS011;1913;50.660;7.834;2023-02-15T07:01:48;25.13;;;10.30;;
3795;SDS011;1913;50.660;7.834;2023-02-15T07:04:14;25.90;;;11.00;;
3795;SDS011;1913;50.660;7.834;2023-02-15T07:06:40;22.07;;;9.83;;
3795;SDS011;1913;50.660;7.834;2023-02-15T07:09:05;23.23;;;9.97;;
3795;SDS011;1913;50.660;7.834;2023-02-15T07:11:31;23.20;;;9.57;;
3795;SDS011;1913;50.660;7.834;2023-02-15T07:14:15;22.30;;;9.37;;
3795;SDS011;1913;50.660;7.834;2023-02-15T07:16:40;24.47;;;10.90;;
3795;SDS011;1913;50.660;7.834;2023-02-15T07:19:06;21.27;;;10.23;;
3795;SDS011;1913;50.660;7.834;2023-02-15T07:21:32;22.50;;;9.53;;
3795;SDS011;1913;50.660;7.834;2023-02-15T07:23:58;28.13;;;9.60;;
3795;SDS011;1913;50.660;7.834;2023-02-15T07:26:24;19.00;;;8.80;;
3795;SDS011;1913;50.660;7.834;2023-02-15T07:28:50;17.20;;;8.80;;
3795;SDS011;1913;50.660;7.834;2023-02-15T07:31:15;17.10;;;8.73;;
3795;SDS011;1913;50.660;7.834;2023-02-15T07:33:41;18.33;;;8.07;;
3795;SDS011;1913;50.660;7.834;2023-02-15T07:36:06;18.10;;;8.20;;
3795;SDS011;1913;50.660;7.834;2023-02-15T07:38:35;20.73;;;9.77;;
3795;SDS011;1913;50.660;7.834;2023-02-15T07:41:02;15.83;;;9.13;;
3795;SDS011;1913;50.660;7.834;2023-02-15T07:43:33;19.03;;;8.43;;
3795;SDS011;1913;50.660;7.834;2023-02-15T07:46:01;12.97;;;7.63;;
3795;SDS011;1913;50.660;7.834;2023-02-15T07:48:28;14.80;;;7.77;;
3795;SDS011;1913;50.660;7.834;2023-02-15T07:50:53;15.63;;;7.40;;
3795;SDS011;1913;50.660;7.834;2023-02-15T07:53:18;16.03;;;7.67;;
3795;SDS011;1913;50.660;7.834;2023-02-15T07:55:44;19.90;;;7.97;;
3795;SDS011;1913;50.660;7.834;2023-02-15T07:58:09;23.10;;;8.50;;
3795;SDS011;1913;50.660;7.834;2023-02-15T08:00:35;19.17;;;9.20;;
3795;SDS011;1913;50.660;7.834;2023-02-15T08:03:24;17.10;;;8.40;;
3795;SDS011;1913;50.660;7.834;2023-02-15T08:05:58;17.23;;;8.60;;
3795;SDS011;1913;50.660;7.834;2023-02-15T08:08:25;15.53;;;8.03;;
3795;SDS011;1913;50.660;7.834;2023-02-15T08:11:09;13.40;;;7.57;;
3795;SDS011;1913;50.660;7.834;2023-02-15T08:21:44;14.63;;;7.70;;
3795;SDS011;1913;50.660;7.834;2023-02-15T08:24:12;15.13;;;8.40;;
3795;SDS011;1913;50.660;7.834;2023-02-15T08:26:38;15.10;;;7.70;;
3795;SDS011;1913;50.660;7.834;2023-02-15T08:29:04;13.23;;;7.80;;
3795;SDS011;1913;50.660;7.834;2023-02-15T08:31:32;14.90;;;7.97;;
3795;SDS011;1913;50.660;7.834;2023-02-15T08:33:58;13.33;;;7.27;;
3795;SDS011;1913;50.660;7.834;2023-02-15T08:36:25;11.90;;;6.90;;
3795;SDS011;1913;50.660;7.834;2023-02-15T08:38:53;11.07;;;7.00;;
3795;SDS011;1913;50.660;7.834;2023-02-15T08:41:20;13.23;;;7.80;;
3795;SDS011;1913;50.660;7.834;2023-02-15T08:43:53;13.37;;;7.80;;
3795;SDS011;1913;50.660;7.834;2023-02-15T08:46:21;13.30;;;7.73;;
3795;SDS011;1913;50.660;7.834;2023-02-15T08:48:47;12.37;;;6.33;;
3795;SDS011;1913;50.660;7.834;2023-02-15T08:51:20;11.27;;;6.60;;
3795;SDS011;1913;50.660;7.834;2023-02-15T08:53:47;14.53;;;7.40;;
3795;SDS011;1913;50.660;7.834;2023-02-15T08:56:16;11.50;;;7.07;;
3795;SDS011;1913;50.660;7.834;2023-02-15T08:58:46;9.93;;;6.63;;
3795;SDS011;1913;50.660;7.834;2023-02-15T09:01:13;10.67;;;6.83;;
3795;SDS011;1913;50.660;7.834;2023-02-15T09:03:43;10.57;;;6.47;;
3795;SDS011;1913;50.660;7.834;2023-02-15T09:06:09;10.40;;;6.53;;
3795;SDS011;1913;50.660;7.834;2023-02-15T09:08:36;13.63;;;7.90;;
3795;SDS011;1913;50.660;7.834;2023-02-15T09:11:21;10.83;;;7.23;;
3795;SDS011;1913;50.660;7.834;2023-02-15T09:13:49;12.00;;;7.10;;
3795;SDS011;1913;50.660;7.834;2023-02-15T09:16:17;12.67;;;7.83;;
3795;SDS011;1913;50.660;7.834;2023-02-15T09:18:42;14.60;;;7.57;;
3795;SDS011;1913;50.660;7.834;2023-02-15T09:21:09;10.67;;;7.03;;
3795;SDS011;1913;50.660;7.834;2023-02-15T09:23:39;13.13;;;7.77;;
3795;SDS011;1913;50.660;7.834;2023-02-15T09:26:06;9.60;;;6.37;;
3795;SDS011;1913;50.660;7.834;2023-02-15T09:28:33;13.60;;;8.23;;
3795;SDS011;1913;50.660;7.834;2023-02-15T09:33:38;14.10;;;7.70;;
3795;SDS011;1913;50.660;7.834;2023-02-15T09:36:05;14.00;;;8.57;;
3795;SDS011;1913;50.660;7.834;2023-02-15T09:38:38;12.23;;;7.40;;
3795;SDS011;1913;50.660;7.834;2023-02-15T09:54:46;13.50;;;7.90;;
3795;SDS011;1913;50.660;7.834;2023-02-15T10:00:04;14.40;;;7.87;;
3795;SDS011;1913;50.660;7.834;2023-02-15T10:05:38;15.40;;;8.77;;
3795;SDS011;1913;50.660;7.834;2023-02-15T10:11:20;14.73;;;8.90;;
3795;SDS011;1913;50.660;7.834;2023-02-15T10:19:27;14.90;;;8.57;;
3795;SDS011;1913;50.660;7.834;2023-02-15T10:24:45;13.17;;;8.33;;
3795;SDS011;1913;50.660;7.834;2023-02-15T10:27:13;12.30;;;8.27;;
3795;SDS011;1913;50.660;7.834;2023-02-15T10:30:08;15.77;;;9.67;;
3795;SDS011;1913;50.660;7.834;2023-02-15T10:32:51;12.83;;;8.13;;
3795;SDS011;1913;50.660;7.834;2023-02-15T10:46:47;17.47;;;9.40;;
3795;SDS011;1913;50.660;7.834;2023-02-15T10:51:59;17.60;;;9.27;;
3795;SDS011;1913;50.660;7.834;2023-02-15T11:05:25;17.10;;;10.00;;
3795;SDS011;1913;50.660;7.834;2023-02-15T11:07:53;12.70;;;8.40;;
3795;SDS011;1913;50.660;7.834;2023-02-15T11:13:14;15.90;;;9.37;;
3795;SDS011;1913;50.660;7.834;2023-02-15T11:21:04;14.93;;;8.93;;
3795;SDS011;1913;50.660;7.834;2023-02-15T11:23:36;17.30;;;10.30;;
3795;SDS011;1913;50.660;7.834;2023-02-15T11:26:29;16.60;;;10.07;;
3795;SDS011;1913;50.660;7.834;2023-02-15T11:28:57;19.80;;;9.50;;
3795;SDS011;1913;50.660;7.834;2023-02-15T11:31:31;16.83;;;10.07;;
3795;SDS011;1913;50.660;7.834;2023-02-15T11:34:19;16.80;;;9.57;;
3795;SDS011;1913;50.660;7.834;2023-02-15T11:36:51;18.67;;;10.47;;
3795;SDS011;1913;50.660;7.834;2023-02-15T11:39:19;15.47;;;9.63;;
3795;SDS011;1913;50.660;7.834;2023-02-15T11:41:47;19.07;;;10.30;;
3795;SDS011;1913;50.660;7.834;2023-02-15T11:44:23;16.20;;;10.20;;
3795;SDS011;1913;50.660;7.834;2023-02-15T11:46:54;14.13;;;9.10;;
3795;SDS011;1913;50.660;7.834;2023-02-15T11:49:38;15.20;;;9.23;;
3795;SDS011;1913;50.660;7.834;2023-02-15T11:52:08;16.93;;;10.07;;
3795;SDS011;1913;50.660;7.834;2023-02-15T11:54:39;19.03;;;11.27;;
3795;SDS011;1913;50.660;7.834;2023-02-15T11:59:45;15.57;;;10.20;;
3795;SDS011;1913;50.660;7.834;2023-02-15T12:02:16;16.80;;;10.80;;
3795;SDS011;1913;50.660;7.834;2023-02-15T12:04:44;16.40;;;10.70;;
3795;SDS011;1913;50.660;7.834;2023-02-15T12:07:23;16.50;;;10.13;;
3795;SDS011;1913;50.660;7.834;2023-02-15T12:10:13;17.10;;;10.70;;
3795;SDS011;1913;50.660;7.834;2023-02-15T12:12:45;18.37;;;11.03;;
3795;SDS011;1913;50.660;7.834;2023-02-15T12:15:11;18.43;;;11.40;;
3795;SDS011;1913;50.660;7.834;2023-02-15T12:17:59;21.27;;;12.87;;
3795;SDS011;1913;50.660;7.834;2023-02-15T12:20:31;23.13;;;12.67;;
3795;SDS011;1913;50.660;7.834;2023-02-15T12:23:11;18.27;;;11.70;;
3795;SDS011;1913;50.660;7.834;2023-02-15T12:25:42;21.10;;;12.13;;
3795;SDS011;1913;50.660;7.834;2023-02-15T12:31:03;18.70;;;11.13;;
3795;SDS011;1913;50.660;7.834;2023-02-15T12:33:36;20.73;;;11.47;;
3795;SDS011;1913;50.660;7.834;2023-02-15T12:39:29;20.77;;;12.07;;
3795;SDS011;1913;50.660;7.834;2023-02-15T12:44:20;20.10;;;12.23;;
3795;SDS011;1913;50.660;7.834;2023-02-15T12:49:31;19.40;;;11.67;;
3795;SDS011;1913;50.660;7.834;2023-02-15T12:51:58;20.90;;;11.93;;
3795;SDS011;1913;50.660;7.834;2023-02-15T12:54:33;20.87;;;11.90;;
3795;SDS011;1913;50.660;7.834;2023-02-15T12:57:13;20.80;;;12.57;;
3795;SDS011;1913;50.660;7.834;2023-02-15T13:02:22;21.27;;;12.60;;
3795;SDS011;1913;50.660;7.834;2023-02-15T13:04:53;21.43;;;13.17;;
3795;SDS011;1913;50.660;7.834;2023-02-15T13:07:20;24.50;;;14.20;;
3795;SDS011;1913;50.660;7.834;2023-02-15T13:09:46;22.30;;;13.13;;
3795;SDS011;1913;50.660;7.834;2023-02-15T13:12:17;21.83;;;12.90;;
3795;SDS011;1913;50.660;7.834;2023-02-15T13:14:49;20.10;;;12.13;;
3795;SDS011;1913;50.660;7.834;2023-02-15T13:17:16;19.67;;;13.07;;
3795;SDS011;1913;50.660;7.834;2023-02-15T13:19:52;21.40;;;12.57;;
3795;SDS011;1913;50.660;7.834;2023-02-15T13:22:25;22.87;;;12.80;;
3795;SDS011;1913;50.660;7.834;2023-02-15T13:24:58;23.17;;;12.30;;
3795;SDS011;1913;50.660;7.834;2023-02-15T13:27:30;21.93;;;12.37;;
3795;SDS011;1913;50.660;7.834;2023-02-15T13:30:02;22.40;;;12.50;;
3795;SDS011;1913;50.660;7.834;2023-02-15T13:32:36;21.87;;;13.30;;
3795;SDS011;1913;50.660;7.834;2023-02-15T13:35:05;22.20;;;12.60;;
3795;SDS011;1913;50.660;7.834;2023-02-15T13:40:24;21.43;;;12.17;;
3795;SDS011;1913;50.660;7.834;2023-02-15T13:42:55;22.10;;;13.67;;
3795;SDS011;1913;50.660;7.834;2023-02-15T14:08:43;24.60;;;13.63;;
3795;SDS011;1913;50.660;7.834;2023-02-15T14:11:29;22.03;;;12.70;;
3795;SDS011;1913;50.660;7.834;2023-02-15T14:20:02;21.13;;;13.20;;
3795;SDS011;1913;50.660;7.834;2023-02-15T14:22:41;23.20;;;12.93;;
3795;SDS011;1913;50.660;7.834;2023-02-15T14:28:17;24.67;;;14.07;;
3795;SDS011;1913;50.660;7.834;2023-02-15T14:30:53;25.70;;;14.20;;
3795;SDS011;1913;50.660;7.834;2023-02-15T14:33:37;21.67;;;13.60;;
3795;SDS011;1913;50.660;7.834;2023-02-15T14:36:08;20.97;;;13.40;;
3795;SDS011;1913;50.660;7.834;2023-02-15T14:41:47;23.20;;;13.80;;
3795;SDS011;1913;50.660;7.834;2023-02-15T14:44:42;23.87;;;13.57;;
3795;SDS011;1913;50.660;7.834;2023-02-15T14:47:17;22.97;;;14.47;;
3795;SDS011;1913;50.660;7.834;2023-02-15T14:49:48;23.97;;;14.03;;
3795;SDS011;1913;50.660;7.834;2023-02-15T14:52:13;28.50;;;14.10;;
3795;SDS011;1913;50.660;7.834;2023-02-15T14:59:40;25.20;;;15.57;;
3795;SDS011;1913;50.660;7.834;2023-02-15T15:04:38;27.00;;;15.40;;
3795;SDS011;1913;50.660;7.834;2023-02-15T15:07:19;27.50;;;14.10;;
3795;SDS011;1913;50.660;7.834;2023-02-15T15:10:00;25.23;;;14.23;;
3795;SDS011;1913;50.660;7.834;2023-02-15T15:12:47;27.23;;;14.60;;
3795;SDS011;1913;50.660;7.834;2023-02-15T15:31:20;26.13;;;14.60;;
3795;SDS011;1913;50.660;7.834;2023-02-15T15:37:08;27.27;;;15.13;;
3795;SDS011;1913;50.660;7.834;2023-02-15T15:39:49;26.93;;;15.03;;
3795;SDS011;1913;50.660;7.834;2023-02-15T15:45:45;30.30;;;16.27;;
3795;SDS011;1913;50.660;7.834;2023-02-15T15:50:32;30.57;;;17.10;;
3795;SDS011;1913;50.660;7.834;2023-02-15T15:52:58;32.53;;;15.67;;
3795;SDS011;1913;50.660;7.834;2023-02-15T15:55:28;30.97;;;16.60;;
3795;SDS011;1913;50.660;7.834;2023-02-15T15:57:59;35.70;;;17.73;;
3795;SDS011;1913;50.660;7.834;2023-02-15T16:02:56;31.30;;;17.13;;
3795;SDS011;1913;50.660;7.834;2023-02-15T16:05:22;33.70;;;18.00;;
3795;SDS011;1913;50.660;7.834;2023-02-15T16:07:48;36.47;;;18.10;;
3795;SDS011;1913;50.660;7.834;2023-02-15T16:10:21;36.53;;;18.60;;
3795;SDS011;1913;50.660;7.834;2023-02-15T16:12:48;40.80;;;18.97;;
3795;SDS011;1913;50.660;7.834;2023-02-15T16:17:41;38.27;;;18.17;;
3795;SDS011;1913;50.660;7.834;2023-02-15T16:22:44;42.70;;;19.00;;
3795;SDS011;1913;50.660;7.834;2023-02-15T16:28:05;39.53;;;18.87;;
3795;SDS011;1913;50.660;7.834;2023-02-15T16:30:33;41.57;;;19.93;;
3795;SDS011;1913;50.660;7.834;2023-02-15T16:36:03;39.77;;;20.23;;
3795;SDS011;1913;50.660;7.834;2023-02-15T16:41:07;40.90;;;20.57;;
3795;SDS011;1913;50.660;7.834;2023-02-15T16:43:54;50.80;;;23.07;;
3795;SDS011;1913;50.660;7.834;2023-02-15T16:46:24;45.87;;;21.60;;
3795;SDS011;1913;50.660;7.834;2023-02-15T16:48:59;44.57;;;20.47;;
3795;SDS011;1913;50.660;7.834;2023-02-15T16:51:27;53.03;;;22.57;;
3795;SDS011;1913;50.660;7.834;2023-02-15T16:53:56;48.63;;;20.57;;
3795;SDS011;1913;50.660;7.834;2023-02-15T16:56:29;46.83;;;21.40;;
3795;SDS011;1913;50.660;7.834;2023-02-15T16:58:56;49.50;;;22.47;;
3795;SDS011;1913;50.660;7.834;2023-02-15T17:01:24;43.87;;;21.27;;
3795;SDS011;1913;50.660;7.834;2023-02-15T17:04:10;47.77;;;23.07;;
3795;SDS011;1913;50.660;7.834;2023-02-15T17:06:37;49.73;;;22.60;;
3795;SDS011;1913;50.660;7.834;2023-02-15T17:09:13;48.00;;;22.47;;
3795;SDS011;1913;50.660;7.834;2023-02-15T17:11:43;45.80;;;20.80;;
3795;SDS011;1913;50.660;7.834;2023-02-15T17:17:42;48.67;;;22.30;;
3795;SDS011;1913;50.660;7.834;2023-02-15T17:20:12;56.03;;;24.13;;
3795;SDS011;1913;50.660;7.834;2023-02-15T17:22:39;47.90;;;21.10;;
3795;SDS011;1913;50.660;7.834;2023-02-15T17:25:05;49.80;;;22.80;;
3795;SDS011;1913;50.660;7.834;2023-02-15T17:27:31;47.03;;;20.90;;
3795;SDS011;1913;50.660;7.834;2023-02-15T17:30:04;49.87;;;23.33;;
3795;SDS011;1913;50.660;7.834;2023-02-15T17:32:51;48.63;;;22.00;;
3795;SDS011;1913;50.660;7.834;2023-02-15T17:35:23;49.07;;;22.60;;
3795;SDS011;1913;50.660;7.834;2023-02-15T17:38:01;48.10;;;23.40;;
3795;SDS011;1913;50.660;7.834;2023-02-15T17:40:39;44.30;;;20.40;;
3795;SDS011;1913;50.660;7.834;2023-02-15T17:43:05;44.17;;;21.60;;
3795;SDS011;1913;50.660;7.834;2023-02-15T17:45:35;45.47;;;22.23;;
3795;SDS011;1913;50.660;7.834;2023-02-15T17:48:05;44.67;;;22.30;;
3795;SDS011;1913;50.660;7.834;2023-02-15T17:50:40;43.93;;;21.43;;
3795;SDS011;1913;50.660;7.834;2023-02-15T17:53:07;46.20;;;22.37;;
3795;SDS011;1913;50.660;7.834;2023-02-15T17:55:33;46.10;;;20.83;;
3795;SDS011;1913;50.660;7.834;2023-02-15T17:58:11;43.77;;;21.47;;
3795;SDS011;1913;50.660;7.834;2023-02-15T18:00:48;43.93;;;20.93;;
3795;SDS011;1913;50.660;7.834;2023-02-15T18:06:27;45.30;;;22.57;;
3795;SDS011;1913;50.660;7.834;2023-02-15T18:09:15;45.50;;;21.30;;
3795;SDS011;1913;50.660;7.834;2023-02-15T18:12:01;45.87;;;21.93;;
3795;SDS011;1913;50.660;7.834;2023-02-15T18:14:27;51.70;;;22.40;;
3795;SDS011;1913;50.660;7.834;2023-02-15T18:16:53;44.60;;;20.10;;
3795;SDS011;1913;50.660;7.834;2023-02-15T18:21:46;47.50;;;20.73;;
3795;SDS011;1913;50.660;7.834;2023-02-15T18:24:16;46.63;;;22.80;;
3795;SDS011;1913;50.660;7.834;2023-02-15T18:26:49;40.20;;;19.80;;
3795;SDS011;1913;50.660;7.834;2023-02-15T18:29:16;50.57;;;20.67;;
3795;SDS011;1913;50.660;7.834;2023-02-15T18:31:42;49.80;;;22.00;;
3795;SDS011;1913;50.660;7.834;2023-02-15T18:37:00;44.67;;;21.37;;
3795;SDS011;1913;50.660;7.834;2023-02-15T18:39:37;49.20;;;23.23;;
3795;SDS011;1913;50.660;7.834;2023-02-15T18:42:05;56.77;;;23.70;;
3795;SDS011;1913;50.660;7.834;2023-02-15T18:44:39;44.80;;;21.83;;
3795;SDS011;1913;50.660;7.834;2023-02-15T18:47:04;47.33;;;21.03;;
3795;SDS011;1913;50.660;7.834;2023-02-15T18:49:30;50.20;;;22.50;;